Time;durP1;ratioP1;P1;durP2;ratioP2;P2;SDS_P1;SDS_P2;PMS_P1;PMS_P2;Temp;Humidity;BMP_temperature;BMP_pressure;BME280_temperature;BME280_humidity;BME280_pressure;Samples;Min_cycle;Max_cycle;Signal;HPM_P1;HPM_P2
2022/10/23 00:00:59;;;;;;;5.77;4.07;;;13.50;99.90;;;;;;5033107;28;20450;-60
2022/10/23 00:03:26;;;;;;;7.23;3.90;;;13.50;99.90;;;;;;5032637;28;20493;-60
2022/10/23 00:05:54;;;;;;;4.13;3.73;;;13.50;99.90;;;;;;5033329;28;20537;-60
2022/10/23 00:08:21;;;;;;;4.20;3.63;;;13.50;99.90;;;;;;5032751;28;20533;-60
2022/10/23 00:10:49;;;;;;;7.57;3.80;;;13.50;99.90;;;;;;5033020;28;20476;-60
2022/10/23 00:13:16;;;;;;;4.83;4.07;;;13.50;99.90;;;;;;5033030;28;20501;-60
2022/10/23 00:15:44;;;;;;;6.60;4.20;;;13.50;99.90;;;;;;5032575;28;20540;-60
2022/10/23 00:18:11;;;;;;;6.20;4.80;;;13.30;99.90;;;;;;5032718;28;20454;-60
2022/10/23 00:20:38;;;;;;;5.47;3.70;;;13.30;99.90;;;;;;5033005;28;20524;-60
2022/10/23 00:23:05;;;;;;;7.80;4.37;;;13.30;99.90;;;;;;5032264;28;20493;-60
2022/10/23 00:25:32;;;;;;;4.60;4.20;;;13.30;99.90;;;;;;5036323;28;20532;-60
2022/10/23 00:28:01;;;;;;;8.23;4.20;;;13.20;99.90;;;;;;5036435;28;20537;-60
2022/10/23 00:30:28;;;;;;;8.63;4.97;;;13.30;99.90;;;;;;5036701;28;20845;-60
2022/10/23 00:32:55;;;;;;;5.40;4.43;;;13.10;99.90;;;;;;5036185;28;20553;-60
2022/10/23 00:35:23;;;;;;;4.67;4.23;;;13.00;99.90;;;;;;5036590;28;20510;-59
2022/10/23 00:37:50;;;;;;;6.10;4.47;;;13.00;99.90;;;;;;5036590;28;20539;-59
2022/10/23 00:40:17;;;;;;;6.63;4.60;;;13.10;99.90;;;;;;5036091;28;20453;-60
2022/10/23 00:42:44;;;;;;;5.53;4.17;;;13.20;99.90;;;;;;5035858;28;20485;-60
2022/10/23 00:45:20;;;;;;;4.50;4.17;;;13.10;99.90;;;;;;5036092;28;20872;-60
2022/10/23 00:47:49;;;;;;;9.20;4.80;;;13.00;99.90;;;;;;5036297;28;20786;-60
2022/10/23 00:50:16;;;;;;;6.67;4.40;;;13.10;99.90;;;;;;5036337;28;20875;-59
2022/10/23 00:52:48;;;;;;;6.40;5.00;;;13.00;99.90;;;;;;5035974;28;20506;-60
2022/10/23 00:55:16;;;;;;;8.43;4.60;;;13.10;99.90;;;;;;5035925;28;20423;-60
2022/10/23 00:57:46;;;;;;;4.33;3.93;;;13.10;99.90;;;;;;5036044;28;20458;-60
2022/10/23 01:00:20;;;;;;;6.00;4.70;;;13.10;99.90;;;;;;5035704;28;20996;-60
2022/10/23 01:02:48;;;;;;;8.73;4.60;;;13.10;99.90;;;;;;5036063;28;20489;-60
2022/10/23 01:05:15;;;;;;;7.30;4.77;;;13.00;99.90;;;;;;5035626;28;20610;-60
2022/10/23 01:07:54;;;;;;;5.73;4.60;;;13.00;99.90;;;;;;5035666;28;20537;-60
2022/10/23 01:10:30;;;;;;;5.53;4.93;;;13.00;99.90;;;;;;5035922;28;20436;-60
2022/10/23 01:13:06;;;;;;;8.70;4.63;;;13.00;99.90;;;;;;5035959;28;20550;-60
2022/10/23 01:15:39;;;;;;;8.83;5.13;;;13.00;99.90;;;;;;5035942;28;20517;-60
2022/10/23 01:18:13;;;;;;;8.70;4.80;;;13.00;99.90;;;;;;5035556;28;20494;-60
2022/10/23 01:20:44;;;;;;;7.10;4.43;;;13.00;99.90;;;;;;5035391;28;20529;-60
2022/10/23 01:23:29;;;;;;;6.00;4.20;;;13.00;99.90;;;;;;5035124;28;20548;-60
2022/10/23 01:26:18;;;;;;;4.97;4.43;;;12.90;99.90;;;;;;5032787;28;20811;-60
2022/10/23 01:28:50;;;;;;;6.47;4.50;;;12.20;99.90;;;;;;5035222;28;20437;-60
2022/10/23 01:31:24;;;;;;;6.90;5.03;;;12.90;99.90;;;;;;5035373;28;20431;-60
2022/10/23 01:33:56;;;;;;;5.50;5.00;;;12.90;99.90;;;;;;5035238;28;20462;-60
2022/10/23 01:36:28;;;;;;;5.60;5.10;;;13.00;99.90;;;;;;5034198;28;20441;-60
2022/10/23 01:39:00;;;;;;;5.27;4.70;;;13.00;99.90;;;;;;5035378;28;20514;-60
2022/10/23 01:41:30;;;;;;;6.43;4.30;;;13.00;99.90;;;;;;5035434;28;20972;-60
2022/10/23 01:44:04;;;;;;;5.80;4.63;;;13.00;99.90;;;;;;5034903;28;21053;-60
2022/10/23 01:46:34;;;;;;;9.77;4.80;;;13.00;99.90;;;;;;5035299;28;20438;-60
2022/10/23 01:49:05;;;;;;;6.50;5.03;;;13.00;99.90;;;;;;5035019;28;20489;-60
2022/10/23 01:51:33;;;;;;;5.50;4.23;;;12.90;99.90;;;;;;5035142;28;20452;-60
2022/10/23 01:54:01;;;;;;;5.03;4.53;;;13.00;99.90;;;;;;5035092;28;20525;-60
2022/10/23 01:56:31;;;;;;;5.20;4.80;;;13.00;99.90;;;;;;5035126;28;20450;-60
2022/10/23 01:59:03;;;;;;;6.30;4.67;;;13.00;99.90;;;;;;5034876;28;20926;-60
2022/10/23 02:01:33;;;;;;;5.87;5.10;;;13.00;99.90;;;;;;5034753;28;20440;-60
2022/10/23 02:04:05;;;;;;;6.00;4.60;;;12.90;99.90;;;;;;5033567;28;20488;-60
2022/10/23 02:06:33;;;;;;;4.73;4.10;;;15.20;99.90;;;;;;5034582;28;20525;-60
2022/10/23 02:09:00;;;;;;;4.43;4.03;;;12.80;99.90;;;;;;5034506;28;20497;-60
2022/10/23 02:11:27;;;;;;;11.30;5.73;;;12.80;99.90;;;;;;5034868;28;20530;-60
2022/10/23 02:14:01;;;;;;;4.53;4.13;;;12.70;99.90;;;;;;5034567;28;20549;-60
2022/10/23 02:16:37;;;;;;;6.80;4.70;;;12.70;99.90;;;;;;5034713;28;20453;-60
2022/10/23 02:19:15;;;;;;;4.33;3.93;;;12.70;99.90;;;;;;5034523;28;20565;-60
2022/10/23 02:21:52;;;;;;;5.70;4.00;;;12.80;99.90;;;;;;5034578;28;20437;-60
2022/10/23 02:24:24;;;;;;;4.10;3.70;;;12.80;99.90;;;;;;5034026;28;20489;-60
2022/10/23 02:26:55;;;;;;;7.20;4.33;;;12.70;99.90;;;;;;5034161;28;20470;-60
2022/10/23 02:29:30;;;;;;;6.33;3.93;;;12.70;99.90;;;;;;5034079;28;20873;-60
2022/10/23 02:31:58;;;;;;;5.70;4.13;;;12.70;99.90;;;;;;5034328;28;20465;-60
2022/10/23 02:34:25;;;;;;;11.20;3.47;;;12.80;99.90;;;;;;5034350;28;20485;-60
2022/10/23 02:36:52;;;;;;;6.93;3.97;;;12.80;99.90;;;;;;5034235;28;20477;-60
2022/10/23 02:39:20;;;;;;;5.90;3.87;;;12.70;99.90;;;;;;5034076;28;20470;-60
2022/10/23 02:41:52;;;;;;;7.37;4.70;;;12.80;99.90;;;;;;5034195;28;20484;-60
2022/10/23 02:44:32;;;;;;;4.27;3.87;;;12.80;99.90;;;;;;5033861;28;21033;-60
2022/10/23 02:47:13;;;;;;;6.23;4.00;;;12.70;99.90;;;;;;5033789;28;20454;-60
2022/10/23 02:49:49;;;;;;;4.40;4.00;;;12.70;99.90;;;;;;5034068;28;20438;-60
2022/10/23 02:52:23;;;;;;;6.30;3.77;;;12.70;99.90;;;;;;5033789;28;20823;-60
2022/10/23 02:55:10;;;;;;;4.87;3.83;;;12.70;99.90;;;;;;5033952;28;20517;-59
2022/10/23 02:57:42;;;;;;;6.10;3.80;;;12.80;99.90;;;;;;5031263;28;20458;-60
2022/10/23 03:00:14;;;;;;;4.50;4.10;;;12.80;99.90;;;;;;5033696;28;20952;-60
2022/10/23 03:02:44;;;;;;;4.57;3.50;;;12.70;99.90;;;;;;5033527;28;20466;-60
2022/10/23 03:05:16;;;;;;;5.50;3.73;;;12.70;99.90;;;;;;5033947;28;20525;-60
2022/10/23 03:07:44;;;;;;;4.27;3.87;;;12.80;99.90;;;;;;5033515;28;20963;-60
2022/10/23 03:10:12;;;;;;;5.17;4.70;;;12.60;99.90;;;;;;5033797;28;20435;-60
2022/10/23 03:12:39;;;;;;;4.70;3.70;;;12.60;99.90;;;;;;5033605;28;20968;-60
2022/10/23 03:15:07;;;;;;;4.57;4.03;;;12.50;99.90;;;;;;5033787;28;20446;-60
2022/10/23 03:17:36;;;;;;;4.80;3.23;;;12.50;99.90;;;;;;5033701;28;20476;-60
2022/10/23 03:20:04;;;;;;;5.50;4.40;;;12.50;99.90;;;;;;5033713;28;20468;-60
2022/10/23 03:22:31;;;;;;;6.40;4.40;;;12.50;99.90;;;;;;5033308;28;20482;-60
2022/10/23 03:24:58;;;;;;;7.80;3.73;;;12.50;99.90;;;;;;5033199;28;20983;-60
2022/10/23 03:27:25;;;;;;;5.33;4.83;;;12.50;99.90;;;;;;5033304;28;20537;-60
2022/10/23 03:29:53;;;;;;;4.87;4.40;;;12.50;99.90;;;;;;5033143;28;20494;-59
2022/10/23 03:32:20;;;;;;;5.83;4.37;;;12.40;99.90;;;;;;5033401;28;20908;-60
2022/10/23 03:34:49;;;;;;;4.40;4.00;;;12.50;99.90;;;;;;5033482;28;20442;-60
2022/10/23 03:37:16;;;;;;;4.50;4.10;;;12.40;99.90;;;;;;5033389;28;20476;-60
2022/10/23 03:39:43;;;;;;;4.60;4.13;;;12.40;99.90;;;;;;5033296;28;20541;-60
2022/10/23 03:42:11;;;;;;;5.67;4.30;;;12.50;99.90;;;;;;5033142;28;20498;-60
2022/10/23 03:44:38;;;;;;;5.67;3.93;;;12.50;99.90;;;;;;5033254;28;20488;-60
2022/10/23 03:47:06;;;;;;;4.97;3.63;;;12.50;99.90;;;;;;5032950;28;21188;-60
2022/10/23 03:49:33;;;;;;;7.53;4.63;;;12.60;99.90;;;;;;5033433;28;20565;-60
2022/10/23 03:52:02;;;;;;;4.97;3.97;;;12.50;99.90;;;;;;5032868;28;21037;-60
2022/10/23 03:54:29;;;;;;;5.17;4.27;;;12.50;99.90;;;;;;5033186;28;20482;-60
2022/10/23 03:56:57;;;;;;;3.97;3.57;;;12.60;99.90;;;;;;5033326;28;20441;-59
2022/10/23 03:59:24;;;;;;;3.90;3.60;;;12.60;99.90;;;;;;5035257;28;20452;-60
2022/10/23 04:01:51;;;;;;;4.30;3.90;;;12.50;99.90;;;;;;5037035;28;20806;-59
2022/10/23 04:04:19;;;;;;;9.63;3.80;;;12.40;99.90;;;;;;5036782;28;20477;-60
2022/10/23 04:06:46;;;;;;;4.60;4.20;;;12.60;99.90;;;;;;5036745;28;20545;-60
2022/10/23 04:09:14;;;;;;;4.27;3.87;;;12.50;99.90;;;;;;5036733;28;20488;-60
2022/10/23 04:11:42;;;;;;;5.70;4.00;;;12.60;99.90;;;;;;5037107;28;20453;-60
2022/10/23 04:14:11;;;;;;;4.83;3.53;;;12.60;99.90;;;;;;5036942;28;20529;-60
2022/10/23 04:16:39;;;;;;;6.03;4.13;;;12.60;99.90;;;;;;5036531;28;20549;-60
2022/10/23 04:19:06;;;;;;;4.50;4.10;;;12.50;99.90;;;;;;5036601;28;20472;-59
2022/10/23 04:21:33;;;;;;;6.73;4.40;;;12.50;99.90;;;;;;5036957;28;20442;-60
2022/10/23 04:24:01;;;;;;;4.33;4.03;;;12.40;99.90;;;;;;5036067;28;20585;-60
2022/10/23 04:26:29;;;;;;;5.07;3.70;;;12.40;99.90;;;;;;5036354;28;20492;-59
2022/10/23 04:28:56;;;;;;;9.93;4.33;;;12.50;99.90;;;;;;5036449;28;20488;-59
2022/10/23 04:31:23;;;;;;;5.07;3.53;;;12.50;99.90;;;;;;5036624;28;20450;-59
2022/10/23 04:33:51;;;;;;;6.47;4.30;;;12.50;99.90;;;;;;5036253;28;20461;-59
2022/10/23 04:36:18;;;;;;;10.73;4.90;;;12.60;99.90;;;;;;5036319;28;20542;-60
2022/10/23 04:38:46;;;;;;;6.70;4.80;;;12.50;99.90;;;;;;5036141;28;20449;-59
2022/10/23 04:41:14;;;;;;;5.47;3.80;;;12.50;99.90;;;;;;5036226;28;20450;-60
2022/10/23 04:43:42;;;;;;;5.60;3.77;;;12.60;99.90;;;;;;5036370;28;20604;-59
2022/10/23 04:46:09;;;;;;;4.00;3.53;;;12.70;99.90;;;;;;5036011;28;20450;-59
2022/10/23 04:48:37;;;;;;;5.10;4.03;;;12.60;99.90;;;;;;5036187;28;20541;-59
2022/10/23 04:51:06;;;;;;;7.03;4.03;;;12.70;99.90;;;;;;5036298;28;20411;-60
2022/10/23 04:53:33;;;;;;;8.20;3.90;;;12.60;99.90;;;;;;5035868;28;20454;-59
2022/10/23 04:56:01;;;;;;;4.57;4.07;;;12.60;99.90;;;;;;5035869;28;20485;-59
2022/10/23 04:58:29;;;;;;;5.57;3.87;;;12.70;99.90;;;;;;5036234;28;20482;-59
2022/10/23 05:00:58;;;;;;;3.70;3.40;;;12.70;99.90;;;;;;5035942;28;20439;-59
2022/10/23 05:03:26;;;;;;;3.73;3.43;;;12.80;99.90;;;;;;5035876;28;20556;-59
2022/10/23 05:05:55;;;;;;;5.40;3.80;;;12.70;99.90;;;;;;5035656;28;20497;-60
2022/10/23 05:08:23;;;;;;;11.00;3.90;;;12.70;99.90;;;;;;5035738;28;20438;-60
2022/10/23 05:10:50;;;;;;;5.13;3.80;;;12.70;99.90;;;;;;5035685;28;20454;-60
2022/10/23 05:13:22;;;;;;;7.03;3.53;;;12.70;99.90;;;;;;5035414;28;20552;-60
2022/10/23 05:15:51;;;;;;;7.50;3.70;;;12.70;99.90;;;;;;5035564;28;20454;-60
2022/10/23 05:18:24;;;;;;;4.30;3.90;;;12.70;99.90;;;;;;5035330;28;20460;-60
2022/10/23 05:20:54;;;;;;;4.37;3.93;;;12.70;99.90;;;;;;5035707;28;20435;-59
2022/10/23 05:23:23;;;;;;;5.20;4.00;;;12.70;99.90;;;;;;5035178;28;20556;-60
2022/10/23 05:25:50;;;;;;;4.50;4.00;;;12.80;99.90;;;;;;5035381;28;20430;-60
2022/10/23 05:28:18;;;;;;;6.10;4.37;;;12.80;99.90;;;;;;5035274;28;20537;-59
2022/10/23 05:30:45;;;;;;;12.33;4.10;;;12.70;99.90;;;;;;5035486;28;20868;-60
2022/10/23 05:33:12;;;;;;;7.33;3.97;;;12.70;99.90;;;;;;5035229;28;20562;-60
2022/10/23 05:35:44;;;;;;;4.50;4.10;;;12.80;99.90;;;;;;5035408;28;20448;-60
2022/10/23 05:38:12;;;;;;;5.70;3.90;;;12.70;99.90;;;;;;5035424;28;20431;-60
2022/10/23 05:40:39;;;;;;;5.10;3.83;;;12.80;99.90;;;;;;5035341;28;20537;-59
2022/10/23 05:43:07;;;;;;;5.10;4.60;;;12.80;99.90;;;;;;5035264;28;20472;-60
2022/10/23 05:45:34;;;;;;;5.00;4.00;;;12.80;99.90;;;;;;5034871;28;20496;-60
2022/10/23 05:48:01;;;;;;;7.43;3.70;;;12.70;99.90;;;;;;5035189;28;20446;-60
2022/10/23 05:50:28;;;;;;;4.23;3.83;;;12.70;99.90;;;;;;5035481;28;20554;-60
2022/10/23 05:52:57;;;;;;;6.60;3.30;;;12.60;99.90;;;;;;5035009;28;20556;-60
2022/10/23 05:55:26;;;;;;;7.30;4.20;;;12.60;99.90;;;;;;5034889;28;20446;-59
2022/10/23 05:57:53;;;;;;;6.80;3.63;;;12.60;99.90;;;;;;5034800;28;20446;-59
2022/10/23 06:00:21;;;;;;;4.60;4.00;;;12.50;99.90;;;;;;5034917;28;20500;-59
2022/10/23 06:02:48;;;;;;;4.23;3.83;;;12.50;99.90;;;;;;5034544;28;20549;-59
2022/10/23 06:05:15;;;;;;;11.23;4.17;;;12.40;99.90;;;;;;5034784;28;20485;-60
2022/10/23 06:07:42;;;;;;;5.30;4.20;;;12.50;99.90;;;;;;5034770;28;20452;-60
2022/10/23 06:10:11;;;;;;;6.60;4.87;;;12.40;99.90;;;;;;5034564;28;20952;-60
2022/10/23 06:12:38;;;;;;;5.13;4.40;;;12.50;99.90;;;;;;5034438;28;21043;-59
2022/10/23 06:15:07;;;;;;;7.00;4.63;;;12.60;99.90;;;;;;5034584;28;20865;-59
2022/10/23 06:17:34;;;;;;;5.87;3.93;;;12.70;99.90;;;;;;5034602;28;20806;-60
2022/10/23 06:20:01;;;;;;;5.40;4.90;;;12.80;99.90;;;;;;5034876;28;20930;-60
2022/10/23 06:22:28;;;;;;;9.33;4.90;;;12.80;99.90;;;;;;5033402;28;20486;-60
2022/10/23 06:24:56;;;;;;;7.20;4.30;;;12.70;99.90;;;;;;5034433;28;20498;-60
2022/10/23 06:27:24;;;;;;;6.30;4.10;;;12.70;99.90;;;;;;5034653;28;20537;-60
2022/10/23 06:29:51;;;;;;;5.60;3.97;;;12.70;99.90;;;;;;5034421;28;20537;-59
2022/10/23 06:32:19;;;;;;;5.63;5.10;;;12.70;99.90;;;;;;5034409;28;20550;-59
2022/10/23 06:34:46;;;;;;;4.60;4.10;;;12.80;99.90;;;;;;5034085;28;20929;-59
2022/10/23 06:37:13;;;;;;;5.23;3.77;;;12.90;99.90;;;;;;5034388;28;20445;-59
2022/10/23 06:39:40;;;;;;;6.10;3.77;;;12.90;99.90;;;;;;5034100;28;20533;-60
2022/10/23 06:42:07;;;;;;;4.73;3.90;;;12.80;99.90;;;;;;5034194;28;20560;-60
2022/10/23 06:44:36;;;;;;;4.43;4.00;;;12.90;99.90;;;;;;5034094;28;20568;-60
2022/10/23 06:47:03;;;;;;;8.20;4.00;;;12.90;99.90;;;;;;5034102;28;20542;-60
2022/10/23 06:49:30;;;;;;;12.13;4.13;;;12.90;99.90;;;;;;5034057;28;20516;-59
2022/10/23 06:51:58;;;;;;;5.10;4.60;;;12.90;99.90;;;;;;5033953;28;20473;-59
2022/10/23 06:54:25;;;;;;;6.23;3.77;;;13.00;99.90;;;;;;5033631;28;20453;-60
2022/10/23 06:56:52;;;;;;;7.10;3.90;;;13.10;99.90;;;;;;5033993;28;20862;-60
2022/10/23 06:59:19;;;;;;;10.93;4.00;;;13.20;99.90;;;;;;5033832;28;20955;-60
2022/10/23 07:01:48;;;;;;;13.90;5.00;;;13.20;99.90;;;;;;5033900;28;20529;-60
2022/10/23 07:04:15;;;;;;;6.00;4.33;;;13.30;99.90;;;;;;5033814;28;20540;-60
2022/10/23 07:06:42;;;;;;;5.50;4.37;;;13.20;99.90;;;;;;5033567;28;21012;-59
2022/10/23 07:09:09;;;;;;;4.70;4.20;;;13.20;99.90;;;;;;5033472;28;20456;-59
2022/10/23 07:11:37;;;;;;;8.00;4.17;;;13.20;99.90;;;;;;5033623;28;20545;-59
2022/10/23 07:14:05;;;;;;;5.20;4.37;;;13.30;99.90;;;;;;5033504;28;20427;-60
2022/10/23 07:16:32;;;;;;;7.97;4.33;;;13.40;99.90;;;;;;5033516;28;20895;-60
2022/10/23 07:19:01;;;;;;;4.83;4.33;;;13.60;99.90;;;;;;5033622;28;20468;-60
2022/10/23 07:21:29;;;;;;;7.50;4.80;;;13.70;99.90;;;;;;5033594;28;20842;-60
2022/10/23 07:23:57;;;;;;;6.57;4.40;;;13.70;99.90;;;;;;5032895;28;20480;-59
2022/10/23 07:26:24;;;;;;;4.13;3.70;;;13.80;99.90;;;;;;5033248;28;20537;-60
2022/10/23 07:28:53;;;;;;;4.77;3.93;;;13.90;99.90;;;;;;5033168;28;21015;-60
2022/10/23 07:31:21;;;;;;;3.93;2.90;;;13.90;99.90;;;;;;5033578;28;20454;-59
2022/10/23 07:33:48;;;;;;;5.20;3.90;;;14.00;99.90;;;;;;5032103;28;20549;-59
2022/10/23 07:36:17;;;;;;;6.17;4.13;;;14.10;99.90;;;;;;5032983;28;20485;-60
2022/10/23 07:38:44;;;;;;;6.60;4.10;;;14.20;99.90;;;;;;5033406;28;20537;-60
2022/10/23 07:41:12;;;;;;;4.83;3.20;;;14.30;99.90;;;;;;5032961;28;20532;-59
2022/10/23 07:43:39;;;;;;;4.30;2.67;;;14.30;99.90;;;;;;5033198;28;20508;-59
2022/10/23 07:46:08;;;;;;;4.93;3.10;;;14.40;99.90;;;;;;5033045;28;20474;-59
2022/10/23 07:48:36;;;;;;;4.10;3.00;;;14.60;99.90;;;;;;5033255;28;20817;-59
2022/10/23 07:51:09;;;;;;;6.93;2.97;;;14.70;99.90;;;;;;5032915;28;20526;-60
2022/10/23 07:53:38;;;;;;;3.17;2.60;;;14.80;99.90;;;;;;5033155;28;20466;-60
2022/10/23 07:56:14;;;;;;;3.30;3.00;;;14.90;99.90;;;;;;5032920;28;20442;-60
2022/10/23 07:58:41;;;;;;;5.53;3.50;;;15.00;99.90;;;;;;5033170;28;20509;-60
2022/10/23 08:01:16;;;;;;;5.03;3.03;;;15.00;99.90;;;;;;5032782;28;20941;-59
2022/10/23 08:03:44;;;;;;;3.70;3.03;;;15.10;99.90;;;;;;5033038;28;20461;-60
2022/10/23 08:06:11;;;;;;;4.03;2.50;;;15.10;99.90;;;;;;5032884;28;21079;-60
2022/10/23 08:08:40;;;;;;;3.00;2.70;;;15.20;99.90;;;;;;5033073;28;20446;-60
2022/10/23 08:11:07;;;;;;;5.43;2.90;;;15.30;99.90;;;;;;5033003;28;20497;-59
2022/10/23 08:13:34;;;;;;;4.83;2.60;;;15.30;99.90;;;;;;5033085;28;20476;-60
2022/10/23 08:16:02;;;;;;;4.87;2.30;;;15.30;99.90;;;;;;5033016;28;20520;-60
2022/10/23 08:18:29;;;;;;;3.20;2.50;;;15.20;99.90;;;;;;5032590;28;20810;-60
2022/10/23 08:21:00;;;;;;;4.13;2.30;;;15.30;99.90;;;;;;5033119;28;20437;-60
2022/10/23 08:23:28;;;;;;;2.80;2.60;;;15.40;99.90;;;;;;5032542;28;20481;-60
2022/10/23 08:26:00;;;;;;;2.97;2.60;;;15.50;99.90;;;;;;5032742;28;20482;-60
2022/10/23 08:28:27;;;;;;;2.93;2.30;;;15.60;99.90;;;;;;5032591;28;20458;-60
2022/10/23 08:30:55;;;;;;;2.90;2.50;;;15.60;99.90;;;;;;5033104;28;20442;-60
2022/10/23 08:33:23;;;;;;;3.10;2.73;;;15.80;99.90;;;;;;5032402;28;20557;-60
2022/10/23 08:35:51;;;;;;;8.43;2.50;;;15.90;99.90;;;;;;5032832;28;20489;-59
2022/10/23 08:38:18;;;;;;;3.67;2.10;;;16.00;99.90;;;;;;5032824;28;20534;-60
2022/10/23 08:40:48;;;;;;;2.83;2.63;;;16.10;99.90;;;;;;5032779;28;20485;-60
2022/10/23 08:43:23;;;;;;;3.13;2.33;;;16.20;99.90;;;;;;5032512;28;20482;-60
2022/10/23 08:45:53;;;;;;;3.70;3.27;;;16.30;99.90;;;;;;5035055;28;20458;-60
2022/10/23 08:48:26;;;;;;;6.17;3.47;;;16.40;99.90;;;;;;5036100;28;20434;-60
2022/10/23 08:50:58;;;;;;;2.50;2.30;;;16.30;99.90;;;;;;5036314;28;20521;-60
2022/10/23 08:53:29;;;;;;;4.30;2.70;;;16.40;99.90;;;;;;5035890;28;20466;-60
2022/10/23 08:56:02;;;;;;;4.83;2.97;;;16.50;99.90;;;;;;5035821;28;20454;-59
2022/10/23 08:58:37;;;;;;;4.43;3.23;;;16.50;99.90;;;;;;5036264;28;20458;-60
2022/10/23 09:01:25;;;;;;;3.53;2.73;;;16.50;99.90;;;;;;5035658;28;20924;-59
2022/10/23 09:03:52;;;;;;;3.03;2.73;;;16.60;99.90;;;;;;5036020;28;20446;-60
2022/10/23 09:06:30;;;;;;;4.53;3.53;;;16.50;99.90;;;;;;5035551;28;20568;-60
2022/10/23 09:09:04;;;;;;;3.70;3.40;;;16.60;99.90;;;;;;5035431;28;20858;-60
2022/10/23 09:11:41;;;;;;;6.10;3.93;;;16.60;99.90;;;;;;5035607;28;20516;-60
2022/10/23 09:14:41;;;;;;;3.93;3.40;;;16.70;99.90;;;;;;5035975;28;20452;-60
2022/10/23 09:17:16;;;;;;;4.30;3.83;;;16.60;99.90;;;;;;5035473;28;20489;-60
2022/10/23 09:19:45;;;;;;;4.03;3.63;;;16.70;99.90;;;;;;5035962;28;20540;-60
2022/10/23 09:22:13;;;;;;;6.27;4.53;;;16.70;99.90;;;;;;5035831;28;20470;-60
2022/10/23 09:24:43;;;;;;;8.00;7.40;;;16.80;99.90;;;;;;5035244;28;20720;-60
2022/10/23 09:27:16;;;;;;;7.87;7.27;;;16.90;99.90;;;;;;5035499;28;20454;-60
2022/10/23 09:29:50;;;;;;;8.43;7.73;;;16.90;99.90;;;;;;5035212;28;20522;-59
2022/10/23 09:32:17;;;;;;;10.57;9.50;;;17.10;99.90;;;;;;5035492;28;20541;-59
2022/10/23 09:34:53;;;;;;;8.70;7.97;;;17.20;99.90;;;;;;5035322;28;20478;-59
2022/10/23 09:37:26;;;;;;;5.70;5.20;;;17.40;99.90;;;;;;5034755;28;20524;-59
2022/10/23 09:40:12;;;;;;;6.70;6.17;;;17.40;99.90;;;;;;5034937;28;20521;-59
2022/10/23 09:42:50;;;;;;;4.27;3.87;;;;;;;;;;5035196;28;20573;-60
2022/10/23 09:45:40;;;;;;;4.83;4.43;;;17.70;99.90;;;;;;5035052;28;20470;-59
2022/10/23 09:48:13;;;;;;;4.40;3.27;;;17.90;99.90;;;;;;5035029;28;20525;-60
2022/10/23 09:50:59;;;;;;;3.93;2.90;;;18.10;99.90;;;;;;5035179;28;20581;-60
2022/10/23 09:53:38;;;;;;;6.13;2.70;;;18.20;99.90;;;;;;5035134;28;20549;-60
2022/10/23 09:56:10;;;;;;;3.00;2.37;;;18.30;99.90;;;;;;5034086;28;20989;-60
2022/10/23 09:58:40;;;;;;;2.47;2.27;;;;;;;;;;5033683;28;20423;-60
2022/10/23 10:01:23;;;;;;;3.10;2.80;;;18.60;99.90;;;;;;5034791;28;20450;-60
2022/10/23 10:03:51;;;;;;;2.63;2.43;;;18.70;99.90;;;;;;5034648;28;20880;-60
2022/10/23 10:06:23;;;;;;;4.50;2.50;;;18.80;99.90;;;;;;5034877;28;20492;-60
2022/10/23 10:08:53;;;;;;;3.40;3.10;;;19.00;99.90;;;;;;5034529;28;20437;-60
2022/10/23 10:11:26;;;;;;;7.03;2.57;;;19.20;99.90;;;;;;5034430;28;20546;-60
2022/10/23 10:14:21;;;;;;;3.33;3.03;;;19.40;99.90;;;;;;5034552;28;20981;-59
2022/10/23 10:16:54;;;;;;;6.17;2.70;;;19.60;99.90;;;;;;5034482;28;20453;-60
2022/10/23 10:19:52;;;;;;;5.90;2.80;;;20.10;99.90;;;;;;5034605;28;20445;-60
2022/10/23 10:22:28;;;;;;;3.30;2.67;;;20.60;99.90;;;;;;5034580;28;20516;-59
2022/10/23 10:25:00;;;;;;;5.30;2.63;;;;;;;;;;5034243;28;20477;-59
2022/10/23 10:27:41;;;;;;;6.30;2.90;;;21.50;99.90;;;;;;5034366;28;20502;-60
2022/10/23 10:30:13;;;;;;;3.20;2.90;;;21.30;99.90;;;;;;5034567;28;20430;-60
2022/10/23 10:32:46;;;;;;;3.77;2.70;;;21.90;99.90;;;;;;5033956;28;20553;-60
2022/10/23 10:35:37;;;;;;;3.53;2.37;;;22.60;99.90;;;;;;5034413;28;20544;-60
2022/10/23 10:38:21;;;;;;;3.03;2.73;;;23.80;99.90;;;;;;5031189;28;20458;-60
2022/10/23 10:41:02;;;;;;;4.40;2.50;;;24.20;99.90;;;;;;5034273;28;20462;-59
2022/10/23 10:43:36;;;;;;;5.53;2.87;;;24.40;99.90;;;;;;5033820;28;20985;-59
2022/10/23 10:46:11;;;;;;;2.40;2.20;;;23.90;99.90;;;;;;5033757;28;20551;-59
2022/10/23 10:48:49;;;;;;;2.60;2.17;;;23.60;99.90;;;;;;5033915;28;20453;-59
2022/10/23 10:51:26;;;;;;;3.57;2.10;;;23.10;99.90;;;;;;5034120;28;20466;-59
2022/10/23 10:54:05;;;;;;;2.93;2.53;;;22.90;99.90;;;;;;5033954;28;20553;-60
2022/10/23 10:56:37;;;;;;;3.63;2.30;;;22.90;99.90;;;;;;5033786;28;20779;-60
2022/10/23 10:59:12;;;;;;;3.17;2.70;;;22.30;99.90;;;;;;5033875;28;20513;-60
2022/10/23 11:01:45;;;;;;;2.60;2.10;;;22.00;99.90;;;;;;5033742;28;20517;-60
2022/10/23 11:04:22;;;;;;;3.40;2.70;;;22.00;99.90;;;;;;5033921;28;20501;-60
2022/10/23 11:06:52;;;;;;;7.30;4.03;;;22.00;99.90;;;;;;5033435;28;20560;-60
2022/10/23 11:09:22;;;;;;;3.60;3.30;;;22.00;99.90;;;;;;5033279;28;20795;-60
2022/10/23 11:11:49;;;;;;;3.63;3.33;;;22.10;99.90;;;;;;5033331;28;20890;-60
2022/10/23 11:14:18;;;;;;;3.63;3.27;;;22.30;99.90;;;;;;5033651;28;20442;-60
2022/10/23 11:16:49;;;;;;;5.40;4.07;;;22.10;99.90;;;;;;5033422;28;20854;-60
2022/10/23 11:19:23;;;;;;;4.67;4.00;;;21.90;99.90;;;;;;5033648;28;20487;-60
2022/10/23 11:21:56;;;;;;;5.40;4.90;;;21.80;99.90;;;;;;5033575;28;20516;-60
2022/10/23 11:24:52;;;;;;;5.30;4.80;;;21.70;99.90;;;;;;5033106;28;20482;-60
2022/10/23 11:27:31;;;;;;;4.30;3.50;;;21.70;99.90;;;;;;5033429;28;20506;-60
2022/10/23 11:30:22;;;;;;;4.73;3.73;;;21.60;99.90;;;;;;5033179;28;20521;-60
2022/10/23 11:33:37;;;;;;;4.10;3.70;;;21.50;99.90;;;;;;5029392;28;20560;-60
2022/10/23 11:36:18;;;;;;;6.37;3.40;;;21.30;99.90;;;;;;4972358;28;20472;-60
2022/10/23 11:38:49;;;;;;;6.50;3.10;;;20.90;99.90;;;;;;5024365;28;20477;-60
2022/10/23 11:41:22;;;;;;;3.30;2.53;;;20.70;99.90;;;;;;5032901;28;20437;-60
2022/10/23 11:43:51;;;;;;;6.80;3.07;;;20.60;99.90;;;;;;5033202;28;20462;-60
2022/10/23 11:46:31;;;;;;;3.50;3.20;;;20.60;99.90;;;;;;5033280;28;20565;-60
2022/10/23 11:49:01;;;;;;;3.30;2.87;;;20.60;99.90;;;;;;5033454;28;20544;-60
2022/10/23 11:51:32;;;;;;;5.20;2.63;;;20.70;99.90;;;;;;5033238;28;20446;-59
2022/10/23 11:54:07;;;;;;;5.63;3.17;;;20.80;99.90;;;;;;5033409;28;20467;-60
2022/10/23 11:56:34;;;;;;;3.20;2.70;;;20.80;99.90;;;;;;5033110;28;20537;-60
2022/10/23 11:59:22;;;;;;;2.60;2.40;;;20.80;99.90;;;;;;5033109;28;20486;-60
2022/10/23 12:01:51;;;;;;;7.63;2.50;;;21.10;99.90;;;;;;5033352;28;20809;-60
2022/10/23 12:04:25;;;;;;;2.57;2.37;;;21.10;99.90;;;;;;5032859;28;20437;-60
2022/10/23 12:06:58;;;;;;;2.77;2.57;;;21.20;99.90;;;;;;5033153;28;20474;-60
2022/10/23 12:09:30;;;;;;;4.70;2.17;;;21.50;99.90;;;;;;5032871;28;20441;-60
2022/10/23 12:12:28;;;;;;;3.40;2.30;;;21.60;99.90;;;;;;5032851;28;20466;-60
2022/10/23 12:15:18;;;;;;;5.47;2.57;;;21.70;99.90;;;;;;5031918;28;20458;-60
2022/10/23 12:17:46;;;;;;;2.53;2.10;;;21.60;99.90;;;;;;5032931;28;20438;-60
2022/10/23 12:20:29;;;;;;;3.00;2.80;;;21.70;99.90;;;;;;5034975;28;20480;-60
2022/10/23 12:23:42;;;;;;;4.03;2.67;;;21.70;99.90;;;;;;5035304;28;20513;-60
2022/10/23 12:26:23;;;;;;;2.63;2.40;;;21.70;99.90;;;;;;5036225;28;20898;-60
2022/10/23 12:28:58;;;;;;;4.67;2.80;;;21.50;99.90;;;;;;5036704;28;20513;-60
2022/10/23 12:31:37;;;;;;;2.90;2.13;;;21.40;99.90;;;;;;5036706;28;20512;-60
2022/10/23 12:34:16;;;;;;;5.00;2.47;;;21.60;99.90;;;;;;5036609;28;20520;-60
2022/10/23 12:36:53;;;;;;;4.27;2.40;;;21.70;99.90;;;;;;5036287;28;20513;-60
2022/10/23 12:39:29;;;;;;;3.53;2.67;;;21.60;99.90;;;;;;5036505;28;20420;-60
2022/10/23 12:41:57;;;;;;;5.60;2.63;;;21.70;99.90;;;;;;5036045;28;20545;-60
2022/10/23 12:44:25;;;;;;;3.20;2.90;;;21.70;99.90;;;;;;5036385;28;20484;-60
2022/10/23 12:46:56;;;;;;;3.00;2.70;;;21.90;99.90;;;;;;5036361;28;20544;-60
2022/10/23 12:49:25;;;;;;;5.87;3.30;;;22.00;99.90;;;;;;5036256;28;20512;-60
2022/10/23 12:51:56;;;;;;;2.60;2.40;;;22.10;99.90;;;;;;5036116;28;20568;-60
2022/10/23 12:54:24;;;;;;;8.40;2.70;;;22.20;99.90;;;;;;5035902;28;20445;-60
2022/10/23 12:56:53;;;;;;;4.23;2.90;;;22.90;99.90;;;;;;5036162;28;20856;-60
2022/10/23 12:59:25;;;;;;;4.60;3.10;;;22.90;99.90;;;;;;5036071;28;20476;-60
2022/10/23 13:01:53;;;;;;;4.53;3.80;;;23.30;99.90;;;;;;5035690;28;20427;-60
2022/10/23 13:04:29;;;;;;;3.23;2.17;;;23.50;99.90;;;;;;5035728;28;20462;-60
2022/10/23 13:06:58;;;;;;;2.87;2.67;;;23.80;99.90;;;;;;5036017;28;20474;-60
2022/10/23 13:09:30;;;;;;;3.37;2.33;;;23.80;99.90;;;;;;5036136;28;20485;-60